WetterOnline ( http://www.wetteronline.de )

Wetter aktuell Freising

Aktuelles Wetter: Weihenstephan-Dürnast (478m)

6-stündlich | Neueste Meldungen
Ortszeit Temperatur Wetter
Sa, 20.10. 8:00 5.9° C Nebel
Sa, 20.10. 2:00 5.9° C Nebel
Fr, 19.10. 20:00 9.6° C wolkig
Fr, 19.10. 14:00 16.1° C wolkenlos
Fr, 19.10. 8:00 5.4° C Nebel
Fr, 19.10. 2:00 7.7° C wolkenlos
Do, 18.10. 20:00 11.1° C wolkig
Do, 18.10. 14:00 17.9° C wolkig
Ortszeit Temperatur Wetter
Sa, 20.10. 12:00 11.1° C bedeckt
Sa, 20.10. 11:50 11.1° C bedeckt
Sa, 20.10. 11:40 10.9° C bedeckt
Sa, 20.10. 11:30 9.9° C bedeckt
Sa, 20.10. 11:20 9.9° C bedeckt
Sa, 20.10. 11:10 9.6° C bedeckt
Sa, 20.10. 11:00 8.5° C bedeckt
Sa, 20.10. 10:30 7.6° C bedeckt
Sa, 20.10. 10:00 7.2° C Nebel
Sa, 20.10. 9:30 6.5° C Nebel
Sa, 20.10. 9:00 6.1° C wolkig
Ortszeit Relative Feuchte Sichtweite
Sa, 20.10. 8:00 100% 0.4 km
Sa, 20.10. 2:00 99% 0.2 km
Fr, 19.10. 20:00 89% 4.6 km
Fr, 19.10. 14:00 66% 4.7 km
Fr, 19.10. 8:00 100% 100 m
Fr, 19.10. 2:00 98% 5.0 km
Do, 18.10. 20:00 86% 11 km
Do, 18.10. 14:00 58% 7 km
Ortszeit Relative Feuchte Sichtweite
Sa, 20.10. 12:00 86% 3.1 km
Sa, 20.10. 11:50 86% -
Sa, 20.10. 11:40 88% -
Sa, 20.10. 11:30 89% 2.6 km
Sa, 20.10. 11:20 89% -
Sa, 20.10. 11:10 93% -
Sa, 20.10. 11:00 96% 1.8 km
Sa, 20.10. 10:30 99% 1.4 km
Sa, 20.10. 10:00 100% 0.2 km
Sa, 20.10. 9:30 99% 100 m
Sa, 20.10. 9:00 99% 1.2 km
Ortszeit Niederschlagsmenge Niederschlagsart
Sa, 20.10. 8:00 0.0 l/m2 in 12 Std. -
Sa, 20.10. 2:00 0.0 l/m2 in 6 Std. -
Fr, 19.10. 20:00 0.0 l/m2 in 12 Std. -
Fr, 19.10. 14:00 0.0 l/m2 in 6 Std. -
Fr, 19.10. 8:00 0.0 l/m2 in 12 Std. -
Fr, 19.10. 2:00 0.0 l/m2 in 6 Std. -
Do, 18.10. 20:00 0.0 l/m2 in 12 Std. -
Do, 18.10. 14:00 0.0 l/m2 in 6 Std. -
Ortszeit Niederschlagsmenge Niederschlagsart
Sa, 20.10. 12:00 0.0 l/m2 in 1 Std. -
Sa, 20.10. 11:50 keine Meldung -
Sa, 20.10. 11:40 keine Meldung -
Sa, 20.10. 11:30 0.0 l/m2 in 1 Std. -
Sa, 20.10. 11:20 keine Meldung -
Sa, 20.10. 11:10 keine Meldung -
Sa, 20.10. 11:00 0.0 l/m2 in 1 Std. -
Sa, 20.10. 10:30 0.0 l/m2 in 1 Std. -
Sa, 20.10. 10:00 0.0 l/m2 in 1 Std. -
Sa, 20.10. 9:30 0.0 l/m2 in 1 Std. -
Sa, 20.10. 9:00 0.0 l/m2 in 1 Std. -
Ortszeit Stärke Spitze Richtung
km/h Bft. km/h Grad Sektor
Sa, 20.10. 8:00 0 0 7 - -
Sa, 20.10. 2:00 4 1 7 260° W
Fr, 19.10. 20:00 4 1 22 270° W
Fr, 19.10. 14:00 11 2 22 90° O
Fr, 19.10. 8:00 0 0 7 - -
Fr, 19.10. 2:00 4 1 7 300° NW
Do, 18.10. 20:00 4 1 18 260° W
Do, 18.10. 14:00 4 1 14 60° NO
Ortszeit Stärke Spitze Richtung
km/h Bft. km/h Grad Sektor
Sa, 20.10. 12:00 4 1 7 230° SW
Sa, 20.10. 11:50 4 1 - 230° SW
Sa, 20.10. 11:40 4 1 - 230° SW
Sa, 20.10. 11:30 6 1 7 230° SW
Sa, 20.10. 11:20 6 1 - 230° SW
Sa, 20.10. 11:10 6 1 - 240° SW
Sa, 20.10. 11:00 4 1 7 250° W
Sa, 20.10. 10:30 6 1 7 230° SW
Sa, 20.10. 10:00 4 1 7 230° SW
Sa, 20.10. 9:30 4 1 7 260° W
Sa, 20.10. 9:00 4 1 7 240° SW
Ortszeit Untergrenze Bedeckung Gattung
total tief tief mittel hoch
Sa, 20.10. 8:00 <30 m 8/8 8/8 - - -
Sa, 20.10. 2:00 1500 m 8/8 1/8 - - -
Fr, 19.10. 20:00 9000 m 8/8 0/8 - - -
Fr, 19.10. 14:00 - 0/8 0/8 - - -
Fr, 19.10. 8:00 1500 m 1/8 1/8 - - -
Fr, 19.10. 2:00 - 0/8 0/8 - - -
Do, 18.10. 20:00 10500 m 8/8 0/8 - - -
Do, 18.10. 14:00 6300 m 6/8 4/8 - - -
Ortszeit Bedeckungsgrad in Achtel und Wolkenuntergrenze
Sa, 20.10. 12:00 8(1140m)
Sa, 20.10. 11:50 8(1140m)
Sa, 20.10. 11:40 8(1140m)
Sa, 20.10. 11:30 8(1170m)
Sa, 20.10. 11:20 8(1170m)
Sa, 20.10. 11:10 8(1170m)
Sa, 20.10. 11:00 4(30m) 8(1170m)
Sa, 20.10. 10:30 8(30m) 8(1170m)
Sa, 20.10. 10:00 8(<30m)
Sa, 20.10. 9:30 6(30m)
Sa, 20.10. 9:00 3(30m) 6(1140m) 4(1410m)
Ortszeit Luftdruck NN (hPa) Tendenz (hPa in 3 Std.)
Sa, 20.10. 8:00 1028 + 1,7
Sa, 20.10. 2:00 1026 + 0,8
Fr, 19.10. 20:00 1024 + 1,2
Fr, 19.10. 14:00 1022 - 0,6
Fr, 19.10. 8:00 1023 + 0,6
Fr, 19.10. 2:00 1022 - 0,2
Do, 18.10. 20:00 1021 + 1,3
Do, 18.10. 14:00 1018 - 0,8
Ortszeit Luftdruck NN (hPa) Tendenz (hPa in 3 Std.)
Sa, 20.10. 12:00 1029 + 0,9
Sa, 20.10. 11:50 1029 keine Meldung
Sa, 20.10. 11:40 1029 keine Meldung
Sa, 20.10. 11:30 1029 + 1,3
Sa, 20.10. 11:20 1029 keine Meldung
Sa, 20.10. 11:10 1029 keine Meldung
Sa, 20.10. 11:00 1029 + 1,5
Sa, 20.10. 10:30 1029 + 1,6
Sa, 20.10. 10:00 1029 + 1,8
Sa, 20.10. 9:30 1029 + 1,9
Sa, 20.10. 9:00 1029 + 1,9
Ortszeit Schneehöhe (cm)
Sa, 20.10. 8:00 0
Sa, 20.10. 2:00 0
Fr, 19.10. 20:00 0
Fr, 19.10. 14:00 0
Fr, 19.10. 8:00 0
Fr, 19.10. 2:00 0
Do, 18.10. 20:00 0
Do, 18.10. 14:00 0
Ortszeit Schneehöhe (cm)
Sa, 20.10. 12:00 0
Sa, 20.10. 11:50 0
Sa, 20.10. 11:40 0
Sa, 20.10. 11:30 0
Sa, 20.10. 11:20 0
Sa, 20.10. 11:10 0
Sa, 20.10. 11:00 0
Sa, 20.10. 10:30 0
Sa, 20.10. 10:00 0
Sa, 20.10. 9:30 0
Sa, 20.10. 9:00 0
Link zu dieser Seite / Seite empfehlen

Das Wetter in ...